createdAt,value
2017-04-13T00:00:27.933Z,0
2017-04-13T00:01:27.914Z,0
2017-04-13T00:02:27.599Z,0
2017-04-13T00:03:27.897Z,0
2017-04-13T00:04:27.890Z,0
2017-04-13T00:05:27.877Z,0
2017-04-13T00:06:27.870Z,0
2017-04-13T00:07:27.871Z,0
2017-04-13T00:08:27.854Z,0
2017-04-13T00:09:27.842Z,0
2017-04-13T00:10:27.834Z,0
2017-04-13T00:11:27.827Z,0
2017-04-13T00:12:27.817Z,0
2017-04-13T00:13:27.503Z,0
2017-04-13T00:14:27.805Z,0
2017-04-13T00:15:27.790Z,0
2017-04-13T00:16:27.781Z,0
2017-04-13T00:17:27.771Z,0
2017-04-13T00:18:27.765Z,0
2017-04-13T00:19:27.453Z,0
2017-04-13T00:20:27.792Z,0
2017-04-13T00:21:27.742Z,0
2017-04-13T00:22:27.734Z,0
2017-04-13T00:23:27.718Z,0
2017-04-13T00:24:27.411Z,0
2017-04-13T00:25:27.704Z,0
2017-04-13T00:26:27.695Z,0
2017-04-13T00:27:27.690Z,0
2017-04-13T00:28:27.679Z,0
2017-04-13T00:29:27.667Z,0
2017-04-13T00:30:27.659Z,0
2017-04-13T00:31:27.680Z,0
2017-04-13T00:32:27.642Z,0
2017-04-13T00:33:27.632Z,0
2017-04-13T00:34:27.320Z,0
2017-04-13T00:35:27.617Z,0
2017-04-13T00:36:27.604Z,0
2017-04-13T00:37:27.597Z,0
2017-04-13T00:38:27.592Z,0
2017-04-13T00:39:27.275Z,0
2017-04-13T00:40:27.564Z,0
2017-04-13T00:41:27.557Z,0
2017-04-13T00:42:27.550Z,0
2017-04-13T00:43:27.544Z,0
2017-04-13T00:44:27.537Z,0
2017-04-13T00:45:27.522Z,0
2017-04-13T00:46:27.509Z,0
2017-04-13T00:47:27.502Z,0
2017-04-13T00:48:27.500Z,0
2017-04-13T00:49:27.489Z,0
2017-04-13T00:50:27.475Z,0
2017-04-13T00:51:27.169Z,0
2017-04-13T00:52:27.459Z,0
2017-04-13T00:53:27.454Z,0
2017-04-13T00:54:27.140Z,0
2017-04-13T00:55:27.435Z,0
2017-04-13T00:56:27.429Z,0
2017-04-13T00:57:27.417Z,0
2017-04-13T00:58:27.411Z,0
2017-04-13T00:59:27.400Z,0
2017-04-13T01:00:27.385Z,0
2017-04-13T01:01:27.377Z,0
2017-04-13T01:02:27.375Z,0
2017-04-13T01:03:27.359Z,0
2017-04-13T01:04:27.349Z,0
2017-04-13T01:05:27.344Z,0
2017-04-13T01:06:27.034Z,0
2017-04-13T01:07:27.323Z,0
2017-04-13T01:08:27.310Z,0
2017-04-13T01:09:27.305Z,0
2017-04-13T01:10:26.992Z,0
2017-04-13T01:11:27.284Z,0
2017-04-13T01:12:27.280Z,0
2017-04-13T01:13:27.268Z,0
2017-04-13T01:14:27.258Z,0
2017-04-13T01:15:27.249Z,0
2017-04-13T01:16:27.248Z,0
2017-04-13T01:17:27.230Z,0
2017-04-13T01:18:27.221Z,0
2017-04-13T01:19:27.212Z,0
2017-04-13T01:20:27.205Z,0
2017-04-13T01:21:27.196Z,0
2017-04-13T01:22:27.183Z,0
2017-04-13T01:23:27.187Z,0
2017-04-13T01:24:27.172Z,0
2017-04-13T01:25:27.159Z,0
2017-04-13T01:26:27.152Z,0
2017-04-13T01:27:27.140Z,0
2017-04-13T01:28:26.831Z,0
2017-04-13T01:29:27.124Z,0
2017-04-13T01:30:27.111Z,0
2017-04-13T01:31:27.098Z,0
2017-04-13T01:32:27.090Z,0
2017-04-13T01:33:27.081Z,0
2017-04-13T01:34:27.075Z,0
2017-04-13T01:35:27.062Z,0
2017-04-13T01:36:27.055Z,0
2017-04-13T01:37:27.043Z,0
2017-04-13T01:38:27.033Z,0
2017-04-13T01:39:27.028Z,0
2017-04-13T01:40:27.012Z,0
2017-04-13T01:41:27.002Z,0
2017-04-13T01:42:26.689Z,0
2017-04-13T01:43:26.991Z,0
2017-04-13T01:44:26.974Z,0
2017-04-13T01:45:26.964Z,0
2017-04-13T01:46:26.961Z,0
2017-04-13T01:47:26.943Z,0
2017-04-13T01:48:26.934Z,0
2017-04-13T01:49:26.619Z,0
2017-04-13T01:50:26.918Z,0
2017-04-13T01:51:26.915Z,0
2017-04-13T01:52:26.904Z,0
2017-04-13T01:53:26.903Z,0
2017-04-13T01:54:26.885Z,0
2017-04-13T01:55:26.874Z,0
2017-04-13T01:56:26.866Z,0
2017-04-13T01:57:26.850Z,0
2017-04-13T01:58:26.850Z,0
2017-04-13T01:59:26.846Z,0
2017-04-13T02:00:26.823Z,0
2017-04-13T02:01:26.813Z,0
2017-04-13T02:02:26.496Z,0
2017-04-13T02:03:26.492Z,0
2017-04-13T02:04:26.782Z,0
2017-04-13T02:05:26.778Z,0
2017-04-13T02:06:26.762Z,0
2017-04-13T02:07:26.750Z,0
2017-04-13T02:08:26.743Z,0
2017-04-13T02:09:26.432Z,0
2017-04-13T02:10:26.728Z,0
2017-04-13T02:11:26.717Z,0
2017-04-13T02:12:26.709Z,0
2017-04-13T02:13:26.710Z,0
2017-04-13T02:14:26.688Z,0
2017-04-13T02:15:26.679Z,0
2017-04-13T02:16:26.671Z,0
2017-04-13T02:17:26.658Z,0
2017-04-13T02:18:26.658Z,0
2017-04-13T02:19:26.645Z,0
2017-04-13T02:20:26.631Z,0
2017-04-13T02:21:26.616Z,0
2017-04-13T02:22:26.616Z,0
2017-04-13T02:23:26.598Z,0
2017-04-13T02:24:26.591Z,0
2017-04-13T02:25:26.631Z,0
2017-04-13T02:26:26.572Z,0
2017-04-13T02:27:26.561Z,0
2017-04-13T02:28:26.552Z,0
2017-04-13T02:29:26.546Z,0
2017-04-13T02:30:26.234Z,0
2017-04-13T02:31:26.529Z,0
2017-04-13T02:32:26.515Z,0
2017-04-13T02:33:26.504Z,0
2017-04-13T02:34:26.495Z,0
2017-04-13T02:35:26.482Z,0
2017-04-13T02:36:26.479Z,0
2017-04-13T02:37:26.468Z,0
2017-04-13T02:38:26.457Z,0
2017-04-13T02:39:26.444Z,0
2017-04-13T02:40:26.436Z,0
2017-04-13T02:41:26.427Z,0
2017-04-13T02:42:26.415Z,0
2017-04-13T02:43:26.409Z,0
2017-04-13T02:44:26.402Z,0
2017-04-13T02:45:26.388Z,0
2017-04-13T02:46:26.379Z,0
2017-04-13T02:47:26.067Z,0
2017-04-13T02:48:26.357Z,0
2017-04-13T02:49:26.348Z,0
2017-04-13T02:50:26.038Z,0
2017-04-13T02:51:26.329Z,0
2017-04-13T02:52:26.017Z,0
2017-04-13T02:53:26.309Z,0
2017-04-13T02:54:26.306Z,0
2017-04-13T02:55:26.291Z,0
2017-04-13T02:56:26.283Z,0
2017-04-13T02:57:26.272Z,0
2017-04-13T02:58:26.260Z,0
2017-04-13T02:59:26.249Z,0
2017-04-13T03:00:26.244Z,0
2017-04-13T03:01:26.230Z,0
2017-04-13T03:02:26.273Z,0
2017-04-13T03:03:26.220Z,0
2017-04-13T03:04:26.203Z,0
2017-04-13T03:05:26.204Z,0
2017-04-13T03:06:26.186Z,0
2017-04-13T03:07:26.216Z,0
2017-04-13T03:08:26.163Z,0
2017-04-13T03:09:26.156Z,0
2017-04-13T03:10:25.840Z,0
2017-04-13T03:11:26.133Z,0
2017-04-13T03:12:26.128Z,0
2017-04-13T03:13:26.124Z,0
2017-04-13T03:14:26.114Z,0
2017-04-13T03:15:26.095Z,0
2017-04-13T03:16:26.132Z,0
2017-04-13T03:17:26.074Z,0
2017-04-13T03:18:26.071Z,0
2017-04-13T03:19:25.756Z,0
2017-04-13T03:20:25.743Z,0
2017-04-13T03:21:26.038Z,0
2017-04-13T03:22:26.031Z,0
2017-04-13T03:23:26.021Z,0
2017-04-13T03:24:26.015Z,0
2017-04-13T03:25:26.008Z,0
2017-04-13T03:26:25.993Z,0
2017-04-13T03:27:25.987Z,0
2017-04-13T03:28:25.972Z,0
2017-04-13T03:29:25.973Z,0
2017-04-13T03:30:25.949Z,0
2017-04-13T03:31:25.942Z,0
2017-04-13T03:32:25.935Z,0
2017-04-13T03:33:25.943Z,0
2017-04-13T03:34:25.913Z,0
2017-04-13T03:35:25.604Z,0
2017-04-13T03:36:25.896Z,0
2017-04-13T03:37:25.883Z,0
2017-04-13T03:38:25.870Z,0
2017-04-13T03:39:25.864Z,0
2017-04-13T03:40:25.853Z,0
2017-04-13T03:41:25.847Z,0
2017-04-13T03:42:25.833Z,0
2017-04-13T03:43:25.823Z,0
2017-04-13T03:44:25.818Z,0
2017-04-13T03:45:25.508Z,0
2017-04-13T03:46:25.800Z,0
2017-04-13T03:47:25.788Z,0
2017-04-13T03:48:25.774Z,0
2017-04-13T03:49:25.770Z,0
2017-04-13T03:50:25.757Z,0
2017-04-13T03:51:25.749Z,0
2017-04-13T03:52:25.740Z,0
2017-04-13T03:53:25.426Z,0
2017-04-13T03:54:25.418Z,0
2017-04-13T03:55:25.406Z,0
2017-04-13T03:56:25.748Z,0
2017-04-13T03:57:25.689Z,0
2017-04-13T03:58:25.688Z,0
2017-04-13T03:59:25.677Z,0
2017-04-13T04:00:25.673Z,0
2017-04-13T04:01:25.650Z,0
2017-04-13T04:02:25.338Z,0
2017-04-13T04:03:25.630Z,5
2017-04-13T04:04:25.621Z,5
2017-04-13T04:05:25.610Z,5
2017-04-13T04:06:25.602Z,5
2017-04-13T04:07:25.592Z,5
2017-04-13T04:08:25.585Z,5
2017-04-13T04:09:25.573Z,10
2017-04-13T04:10:25.560Z,10
2017-04-13T04:11:25.801Z,10
2017-04-13T04:12:25.541Z,10
2017-04-13T04:13:25.530Z,15
2017-04-13T04:14:25.517Z,15
2017-04-13T04:15:25.509Z,15
2017-04-13T04:16:25.504Z,15
2017-04-13T04:17:25.187Z,20
2017-04-13T04:18:25.478Z,20
2017-04-13T04:19:25.473Z,20
2017-04-13T04:20:25.463Z,20
2017-04-13T04:21:25.457Z,25
2017-04-13T04:22:25.444Z,25
2017-04-13T04:23:25.434Z,25
2017-04-13T04:24:25.419Z,30
2017-04-13T04:25:25.109Z,30
2017-04-13T04:26:25.403Z,30
2017-04-13T04:27:25.390Z,30
2017-04-13T04:28:25.383Z,30
2017-04-13T04:29:25.367Z,30
2017-04-13T04:30:25.358Z,35
2017-04-13T04:31:25.347Z,40
2017-04-13T04:32:25.338Z,40
2017-04-13T04:33:25.021Z,40
2017-04-13T04:34:25.317Z,40
2017-04-13T04:35:25.315Z,40
2017-04-13T04:36:25.295Z,45
2017-04-13T04:37:25.292Z,45
2017-04-13T04:38:25.271Z,50
2017-04-13T04:39:25.272Z,55
2017-04-13T04:40:24.950Z,60
2017-04-13T04:41:25.501Z,65
2017-04-13T04:42:25.234Z,60
2017-04-13T04:43:25.226Z,60
2017-04-13T04:44:25.211Z,60
2017-04-13T04:45:25.203Z,70
2017-04-13T04:46:25.193Z,90
2017-04-13T04:47:25.183Z,90
2017-04-13T04:48:25.173Z,80
2017-04-13T04:49:25.163Z,85
2017-04-13T04:50:25.156Z,90
2017-04-13T04:51:25.146Z,105
2017-04-13T04:52:25.132Z,95
2017-04-13T04:53:24.819Z,80
2017-04-13T04:54:25.113Z,70
2017-04-13T04:55:25.107Z,70
2017-04-13T04:56:25.093Z,75
2017-04-13T04:57:25.082Z,75
2017-04-13T04:58:25.079Z,80
2017-04-13T04:59:25.074Z,85
2017-04-13T05:00:24.750Z,100
2017-04-13T05:01:25.053Z,120
2017-04-13T05:02:25.033Z,130
2017-04-13T05:03:25.024Z,135
2017-04-13T05:04:25.021Z,135
2017-04-13T05:05:25.007Z,140
2017-04-13T05:06:25.001Z,145
2017-04-13T05:07:24.985Z,145
2017-04-13T05:08:24.978Z,140
2017-04-13T05:09:24.965Z,135
2017-04-13T05:10:24.956Z,135
2017-04-13T05:11:24.647Z,120
2017-04-13T05:12:24.940Z,130
2017-04-13T05:13:24.927Z,150
2017-04-13T05:14:24.613Z,195
2017-04-13T05:15:24.609Z,230
2017-04-13T05:16:24.899Z,255
2017-04-13T05:17:24.898Z,280
2017-04-13T05:18:24.883Z,335
2017-04-13T05:19:24.871Z,250
2017-04-13T05:20:24.562Z,355
2017-04-13T05:21:24.855Z,335
2017-04-13T05:22:24.849Z,250
2017-04-13T05:23:24.837Z,260
2017-04-13T05:24:24.833Z,245
2017-04-13T05:25:24.819Z,230
2017-04-13T05:26:24.815Z,255
2017-04-13T05:27:24.805Z,205
2017-04-13T05:28:24.796Z,215
2017-04-13T05:29:24.483Z,180
2017-04-13T05:30:24.483Z,160
2017-04-13T05:31:24.470Z,170
2017-04-13T05:32:24.763Z,190
2017-04-13T05:33:24.761Z,260
2017-04-13T05:34:24.754Z,455
2017-04-13T05:35:24.744Z,485
2017-04-13T05:36:24.737Z,435
2017-04-13T05:37:24.725Z,465
2017-04-13T05:38:24.718Z,425
2017-04-13T05:39:24.721Z,520
2017-04-13T05:40:24.705Z,330
2017-04-13T05:41:24.738Z,360
2017-04-13T05:42:24.697Z,280
2017-04-13T05:43:24.689Z,240
2017-04-13T05:44:24.680Z,265
2017-04-13T05:45:24.679Z,190
2017-04-13T05:46:24.370Z,295
2017-04-13T05:47:24.662Z,400
2017-04-13T05:48:24.660Z,530
2017-04-13T05:49:24.651Z,545
2017-04-13T05:50:24.653Z,550
2017-04-13T05:51:24.643Z,525
2017-04-13T05:52:24.639Z,555
2017-04-13T05:53:24.636Z,555
2017-04-13T05:54:24.330Z,555
2017-04-13T05:55:24.624Z,570
2017-04-13T05:56:24.622Z,580
2017-04-13T05:57:24.618Z,590
2017-04-13T05:58:24.618Z,365
2017-04-13T05:59:24.003Z,650
2017-04-13T06:00:24.610Z,665
2017-04-13T06:01:24.610Z,680
2017-04-13T06:02:24.605Z,495
2017-04-13T06:03:24.601Z,710
2017-04-13T06:04:24.598Z,710
2017-04-13T06:05:24.295Z,710
2017-04-13T06:06:24.592Z,735
2017-04-13T06:07:24.595Z,735
2017-04-13T06:08:24.589Z,745
2017-04-13T06:09:24.597Z,770
2017-04-13T06:10:24.595Z,785
2017-04-13T06:11:24.590Z,800
2017-04-13T06:12:24.589Z,815
2017-04-13T06:13:24.588Z,820
2017-04-13T06:14:24.597Z,835
2017-04-13T06:15:24.591Z,845
2017-04-13T06:16:24.292Z,860
2017-04-13T06:17:24.592Z,885
2017-04-13T06:18:24.594Z,900
2017-04-13T06:19:24.597Z,915
2017-04-13T06:20:24.597Z,885
2017-04-13T06:21:24.303Z,855
2017-04-13T06:22:24.607Z,640
2017-04-13T06:23:24.607Z,850
2017-04-13T06:24:24.606Z,450
2017-04-13T06:25:24.313Z,560
2017-04-13T06:26:24.624Z,1010
2017-04-13T06:27:24.621Z,1025
2017-04-13T06:28:24.623Z,1040
2017-04-13T06:29:24.624Z,1035
2017-04-13T06:30:24.629Z,1025
2017-04-13T06:31:24.630Z,1025
2017-04-13T06:32:24.637Z,960
2017-04-13T06:33:24.338Z,1045
2017-04-13T06:34:24.642Z,1045
2017-04-13T06:35:24.652Z,1065
2017-04-13T06:36:24.652Z,1080
2017-04-13T06:37:24.658Z,965
2017-04-13T06:38:24.663Z,1155
2017-04-13T06:39:24.673Z,845
2017-04-13T06:40:24.674Z,925
2017-04-13T06:41:24.677Z,935
2017-04-13T06:42:24.683Z,1000
2017-04-13T06:43:24.688Z,1145
2017-04-13T06:44:24.692Z,1150
2017-04-13T06:45:24.700Z,600
2017-04-13T06:46:24.706Z,790
2017-04-13T06:47:24.412Z,725
2017-04-13T06:48:24.722Z,830
2017-04-13T06:49:24.722Z,995
2017-04-13T06:50:24.733Z,1255
2017-04-13T06:51:24.738Z,830
2017-04-13T06:52:24.742Z,735
2017-04-13T06:53:24.751Z,560
2017-04-13T06:54:24.754Z,630
2017-04-13T06:55:24.758Z,620
2017-04-13T06:56:24.460Z,1135
2017-04-13T06:57:24.771Z,1550
2017-04-13T06:58:24.769Z,685
2017-04-13T06:59:24.780Z,480
2017-04-13T07:00:24.791Z,440
2017-04-13T07:01:24.786Z,725
2017-04-13T07:02:24.792Z,510
2017-04-13T07:03:24.497Z,435
2017-04-13T07:04:24.807Z,980
2017-04-13T07:05:24.803Z,1355
2017-04-13T07:06:24.822Z,750
2017-04-13T07:07:24.812Z,1180
2017-04-13T07:08:24.816Z,1215
2017-04-13T07:09:24.818Z,1255
2017-04-13T07:10:24.829Z,1310
2017-04-13T07:11:24.829Z,1300
2017-04-13T07:12:24.835Z,535
2017-04-13T07:13:24.832Z,1270
2017-04-13T07:14:24.842Z,1295
2017-04-13T07:15:24.848Z,1345
2017-04-13T07:16:24.853Z,460
2017-04-13T07:17:24.860Z,1430
2017-04-13T07:18:24.865Z,1605
2017-04-13T07:19:24.868Z,1605
2017-04-13T07:20:24.876Z,680
2017-04-13T07:21:24.589Z,595
2017-04-13T07:22:24.888Z,570
2017-04-13T07:23:24.892Z,560
2017-04-13T07:24:24.900Z,480
2017-04-13T07:25:24.913Z,530
2017-04-13T07:26:24.914Z,605
2017-04-13T07:27:24.915Z,540
2017-04-13T07:28:24.623Z,1545
2017-04-13T07:29:24.622Z,325
2017-04-13T07:30:24.629Z,530
2017-04-13T07:31:24.634Z,1580
2017-04-13T07:32:24.337Z,515
2017-04-13T07:33:24.645Z,515
2017-04-13T07:34:24.994Z,655
2017-04-13T07:35:24.658Z,1835
2017-04-13T07:36:24.352Z,2135
2017-04-13T07:37:24.397Z,340
2017-04-13T07:38:24.666Z,425
2017-04-13T07:39:24.969Z,2380
2017-04-13T07:40:24.976Z,680
2017-04-13T07:41:24.678Z,765
2017-04-13T07:42:24.684Z,715
2017-04-13T07:43:24.684Z,460
2017-04-13T07:44:24.990Z,370
2017-04-13T07:45:24.693Z,1875
2017-04-13T07:46:24.696Z,2075
2017-04-13T07:47:24.696Z,1195
2017-04-13T07:48:24.395Z,545
2017-04-13T07:49:24.703Z,445
2017-04-13T07:50:25.009Z,2260
2017-04-13T07:51:24.716Z,2270
2017-04-13T07:52:25.015Z,2365
2017-04-13T07:53:24.721Z,2485
2017-04-13T07:54:24.717Z,505
2017-04-13T07:55:24.118Z,585
2017-04-13T07:56:24.120Z,520
2017-04-13T07:57:24.728Z,470
2017-04-13T07:58:25.038Z,980
2017-04-13T07:59:25.040Z,1320
2017-04-13T08:00:24.741Z,1180
2017-04-13T08:01:24.444Z,340
2017-04-13T08:02:25.053Z,530
2017-04-13T08:03:25.057Z,1705
2017-04-13T08:04:25.058Z,1500
2017-04-13T08:05:24.757Z,400
2017-04-13T08:06:24.767Z,1485
2017-04-13T08:07:25.070Z,1720
2017-04-13T08:08:24.768Z,1765
2017-04-13T08:09:25.071Z,1725
2017-04-13T08:10:24.785Z,345
2017-04-13T08:11:24.776Z,370
2017-04-13T08:12:24.781Z,1765
2017-04-13T08:13:25.087Z,1060
2017-04-13T08:14:25.089Z,1915
2017-04-13T08:15:24.490Z,610
2017-04-13T08:16:25.096Z,695
2017-04-13T08:17:25.104Z,630
2017-04-13T08:18:25.106Z,375
2017-04-13T08:19:24.800Z,280
2017-04-13T08:20:24.807Z,245
2017-04-13T08:21:24.813Z,360
2017-04-13T08:22:25.116Z,415
2017-04-13T08:23:25.121Z,420
2017-04-13T08:24:24.816Z,535
2017-04-13T08:25:24.815Z,680
2017-04-13T08:26:25.125Z,735
2017-04-13T08:27:25.125Z,575
2017-04-13T08:28:25.121Z,540
2017-04-13T08:29:25.124Z,465
2017-04-13T08:30:25.127Z,460
2017-04-13T08:31:24.832Z,550
2017-04-13T08:32:25.129Z,620
2017-04-13T08:33:25.121Z,605
2017-04-13T08:34:25.123Z,580
2017-04-13T08:35:25.126Z,545
2017-04-13T08:36:24.520Z,500
2017-04-13T08:37:24.521Z,385
2017-04-13T08:38:25.125Z,265
2017-04-13T08:39:24.825Z,190
2017-04-13T08:40:25.127Z,160
2017-04-13T08:41:24.816Z,130
2017-04-13T08:42:25.125Z,100
2017-04-13T08:43:24.510Z,95
2017-04-13T08:44:24.809Z,115
2017-04-13T08:45:24.518Z,180
2017-04-13T08:46:25.517Z,290
2017-04-13T08:47:25.111Z,400
2017-04-13T08:48:27.539Z,480
2017-04-13T08:49:25.102Z,510
2017-04-13T08:50:24.494Z,470
2017-04-13T08:51:24.794Z,480
2017-04-13T08:52:24.794Z,590
2017-04-13T08:53:24.785Z,670
2017-04-13T08:54:24.483Z,670
2017-04-13T08:55:24.480Z,645
2017-04-13T08:56:24.471Z,575
2017-04-13T08:57:24.470Z,470
2017-04-13T08:58:24.487Z,370
2017-04-13T08:59:24.773Z,345
2017-04-13T09:00:24.157Z,385
2017-04-13T09:01:25.073Z,330
2017-04-13T09:02:24.757Z,300
2017-04-13T09:03:25.056Z,355
2017-04-13T09:04:24.143Z,525
2017-04-13T09:05:24.749Z,670
2017-04-13T09:06:24.743Z,650
2017-04-13T09:07:25.298Z,660
2017-04-13T09:08:24.431Z,655
2017-04-13T09:09:25.039Z,590
2017-04-13T09:10:24.730Z,615
2017-04-13T09:11:25.083Z,620
2017-04-13T09:12:25.038Z,525
2017-04-13T09:13:25.026Z,435
2017-04-13T09:14:25.018Z,360
2017-04-13T09:15:24.717Z,245
2017-04-13T09:16:24.411Z,185
2017-04-13T09:17:25.018Z,195
2017-04-13T09:18:24.706Z,275
2017-04-13T09:19:25.004Z,340
2017-04-13T09:20:24.701Z,360
2017-04-13T09:21:24.701Z,400
2017-04-13T09:22:24.699Z,520
2017-04-13T09:23:24.710Z,650
2017-04-13T09:24:24.684Z,615
2017-04-13T09:25:24.687Z,600
2017-04-13T09:26:24.985Z,640
2017-04-13T09:27:24.682Z,620
2017-04-13T09:28:24.699Z,570
2017-04-13T09:29:24.974Z,520
2017-04-13T09:30:24.665Z,470
2017-04-13T09:31:24.664Z,480
2017-04-13T09:32:24.962Z,455
2017-04-13T09:33:24.655Z,470
2017-04-13T09:34:24.352Z,465
2017-04-13T09:35:24.655Z,445
2017-04-13T09:36:24.353Z,390
2017-04-13T09:37:24.998Z,360
2017-04-13T09:38:24.336Z,355
2017-04-13T09:39:24.331Z,355
2017-04-13T09:40:24.936Z,385
2017-04-13T09:41:24.946Z,380
2017-04-13T09:42:24.629Z,435
2017-04-13T09:43:24.927Z,520
2017-04-13T09:44:24.623Z,590
2017-04-13T09:45:24.929Z,525
2017-04-13T09:46:24.618Z,500
2017-04-13T09:47:24.613Z,420
2017-04-13T09:48:24.607Z,305
2017-04-13T09:49:24.603Z,215
2017-04-13T09:50:24.600Z,185
2017-04-13T09:51:24.606Z,210
2017-04-13T09:52:24.595Z,260
2017-04-13T09:53:24.895Z,280
2017-04-13T09:54:24.598Z,305
2017-04-13T09:55:24.585Z,365
2017-04-13T09:56:24.274Z,460
2017-04-13T09:57:24.273Z,505
2017-04-13T09:58:24.872Z,490
2017-04-13T09:59:24.565Z,455
2017-04-13T10:00:24.867Z,360
2017-04-13T10:01:24.276Z,275
2017-04-13T10:02:24.857Z,240
2017-04-13T10:03:24.547Z,245
2017-04-13T10:04:24.586Z,310
2017-04-13T10:05:24.893Z,400
2017-04-13T10:06:24.550Z,485
2017-04-13T10:07:24.539Z,455
2017-04-13T10:08:24.534Z,405
2017-04-13T10:09:24.831Z,365
2017-04-13T10:10:24.221Z,360
2017-04-13T10:11:24.220Z,360
2017-04-13T10:12:24.519Z,350
2017-04-13T10:13:24.519Z,375
2017-04-13T10:14:24.205Z,470
2017-04-13T10:15:24.201Z,555
2017-04-13T10:16:24.197Z,560
2017-04-13T10:17:24.196Z,570
2017-04-13T10:18:24.188Z,485
2017-04-13T10:19:24.486Z,380
2017-04-13T10:20:24.183Z,375
2017-04-13T10:21:23.875Z,445
2017-04-13T10:22:24.478Z,510
2017-04-13T10:23:24.473Z,490
2017-04-13T10:24:24.470Z,455
2017-04-13T10:25:24.771Z,440
2017-04-13T10:26:24.770Z,420
2017-04-13T10:27:24.764Z,410
2017-04-13T10:28:24.456Z,425
2017-04-13T10:29:24.756Z,455
2017-04-13T10:30:24.751Z,490
2017-04-13T10:31:24.448Z,525
2017-04-13T10:32:24.744Z,520
2017-04-13T10:33:24.136Z,535
2017-04-13T10:34:24.740Z,555
2017-04-13T10:35:24.730Z,515
2017-04-13T10:36:24.734Z,465
2017-04-13T10:37:24.727Z,450
2017-04-13T10:38:24.424Z,440
2017-04-13T10:39:24.420Z,440
2017-04-13T10:40:24.719Z,475
2017-04-13T10:41:24.416Z,520
2017-04-13T10:42:24.710Z,555
2017-04-13T10:43:24.403Z,550
2017-04-13T10:44:24.402Z,535
2017-04-13T10:45:24.701Z,550
2017-04-13T10:48:02.168Z,560
2017-04-13T10:48:47.857Z,545
2017-04-13T10:49:48.158Z,500
2017-04-13T10:50:47.247Z,470
2017-04-13T10:51:47.256Z,515
2017-04-13T10:52:47.849Z,465
2017-04-13T10:53:47.241Z,390
2017-04-13T10:54:47.842Z,335
2017-04-13T10:55:47.839Z,310
2017-04-13T10:56:47.225Z,300
2017-04-13T10:57:47.529Z,295
2017-04-13T10:58:47.826Z,300
2017-04-13T10:59:46.920Z,305
2017-04-13T11:00:47.519Z,310
2017-04-13T11:01:47.514Z,310
2017-04-13T11:02:47.812Z,310
2017-04-13T11:03:47.810Z,315
2017-04-13T11:04:47.503Z,320
2017-04-13T11:05:47.197Z,335
2017-04-13T11:06:47.822Z,375
2017-04-13T11:07:47.795Z,400
2017-04-13T11:08:47.493Z,440
2017-04-13T11:09:47.795Z,505
2017-04-13T11:10:47.784Z,565
2017-04-13T11:11:47.782Z,585
2017-04-13T11:12:47.478Z,545
2017-04-13T11:13:47.470Z,495
2017-04-13T11:14:47.769Z,425
2017-04-13T11:15:47.767Z,370
2017-04-13T11:16:47.971Z,350
2017-04-13T11:17:47.762Z,320
2017-04-13T11:18:47.763Z,265
2017-04-13T11:19:47.459Z,225
2017-04-13T11:20:47.750Z,200
2017-04-13T11:21:47.146Z,200
2017-04-13T11:22:47.440Z,230
2017-04-13T11:23:47.434Z,260
2017-04-13T11:24:47.735Z,305
2017-04-13T11:25:47.429Z,345
2017-04-13T11:26:47.426Z,370
2017-04-13T11:27:47.420Z,410
2017-04-13T11:28:47.455Z,475
2017-04-13T11:29:47.411Z,500
2017-04-13T11:30:47.710Z,505
2017-04-13T11:31:47.109Z,485
2017-04-13T11:32:47.403Z,455
2017-04-13T11:33:47.396Z,420
2017-04-13T11:34:47.092Z,385
2017-04-13T11:35:47.398Z,330
2017-04-13T11:36:47.694Z,265
2017-04-13T11:37:47.687Z,230
2017-04-13T11:38:47.683Z,220
2017-04-13T11:39:47.687Z,250
2017-04-13T11:40:47.674Z,310
2017-04-13T11:41:47.367Z,385
2017-04-13T11:42:47.668Z,470
2017-04-13T11:43:47.064Z,565
2017-04-13T11:44:47.363Z,620
2017-04-13T11:45:47.666Z,635
2017-04-13T11:46:47.654Z,625
2017-04-13T11:47:47.346Z,615
2017-04-13T11:48:47.651Z,600
2017-04-13T11:49:47.340Z,585
2017-04-13T11:50:47.639Z,560
2017-04-13T11:51:46.730Z,530
2017-04-13T11:52:47.329Z,510
2017-04-13T11:53:47.329Z,500
2017-04-13T11:54:47.627Z,520
2017-04-13T11:55:47.650Z,545
2017-04-13T11:56:47.319Z,570
2017-04-13T11:57:47.621Z,580
2017-04-13T11:58:47.617Z,590
2017-04-13T11:59:47.610Z,595
2017-04-13T12:00:47.307Z,585
2017-04-13T12:01:47.310Z,580
2017-04-13T12:02:47.808Z,590
2017-04-13T12:03:47.600Z,620
2017-04-13T12:04:47.299Z,640
2017-04-13T12:05:47.296Z,655
2017-04-13T12:06:47.595Z,670
2017-04-13T12:07:47.588Z,670
2017-04-13T12:08:47.598Z,675
2017-04-13T12:09:47.591Z,680
2017-04-13T12:10:47.581Z,670
2017-04-13T12:11:47.582Z,665
2017-04-13T12:12:47.286Z,670
2017-04-13T12:13:46.971Z,650
2017-04-13T12:14:47.571Z,630
2017-04-13T12:15:47.574Z,615
2017-04-13T12:16:47.266Z,605
2017-04-13T12:17:47.571Z,580
2017-04-13T12:18:46.960Z,560
2017-04-13T12:19:47.567Z,570
2017-04-13T12:20:47.571Z,590
2017-04-13T12:21:47.259Z,610
2017-04-13T12:22:47.566Z,600
2017-04-13T12:23:47.256Z,590
2017-04-13T12:24:47.258Z,570
2017-04-13T12:25:47.561Z,560
2017-04-13T12:26:47.556Z,580
2017-04-13T12:27:47.591Z,600
2017-04-13T12:28:47.556Z,600
2017-04-13T12:29:47.551Z,580
2017-04-13T12:30:47.246Z,575
2017-04-13T12:31:47.242Z,565
2017-04-13T12:32:47.238Z,525
2017-04-13T12:33:47.547Z,450
2017-04-13T12:34:47.543Z,360
2017-04-13T12:35:46.995Z,300
2017-04-13T12:36:47.233Z,265
2017-04-13T12:37:47.537Z,230
2017-04-13T12:38:47.539Z,215
2017-04-13T12:39:47.241Z,220
2017-04-13T12:40:47.529Z,260
2017-04-13T12:41:47.227Z,280
2017-04-13T12:42:47.236Z,275
2017-04-13T12:43:47.520Z,260
2017-04-13T12:44:47.215Z,220
2017-04-13T12:45:47.212Z,175
2017-04-13T12:46:47.517Z,130
2017-04-13T12:47:47.209Z,110
2017-04-13T12:48:47.207Z,95
2017-04-13T12:49:46.597Z,85
2017-04-13T12:50:47.504Z,85
2017-04-13T12:51:47.197Z,95
2017-04-13T12:52:47.501Z,100
2017-04-13T12:53:47.197Z,115
2017-04-13T12:54:47.197Z,135
2017-04-13T12:55:47.495Z,160
2017-04-13T12:56:47.181Z,200
2017-04-13T12:57:47.694Z,250
2017-04-13T12:58:47.176Z,295
2017-04-13T12:59:47.475Z,330
2017-04-13T13:00:47.479Z,340
2017-04-13T13:01:47.407Z,340
2017-04-13T13:02:47.461Z,340
2017-04-13T13:03:47.157Z,350
2017-04-13T13:04:47.658Z,350
2017-04-13T13:05:47.452Z,335
2017-04-13T13:06:46.842Z,310
2017-04-13T13:07:47.446Z,295
2017-04-13T13:08:47.439Z,280
2017-04-13T13:09:46.826Z,285
2017-04-13T13:10:46.217Z,290
2017-04-13T13:11:47.125Z,310
2017-04-13T13:12:46.815Z,310
2017-04-13T13:13:47.416Z,245
2017-04-13T13:14:47.114Z,205
2017-04-13T13:15:47.412Z,200
2017-04-13T13:16:46.804Z,170
2017-04-13T13:17:47.100Z,135
2017-04-13T13:18:47.094Z,125
2017-04-13T13:19:46.788Z,160
2017-04-13T13:20:47.391Z,205
2017-04-13T13:21:47.392Z,245
2017-04-13T13:22:47.385Z,280
2017-04-13T13:23:47.076Z,310
2017-04-13T13:24:46.766Z,340
2017-04-13T13:25:47.065Z,390
2017-04-13T13:26:47.366Z,410
2017-04-13T13:27:46.754Z,410
2017-04-13T13:28:47.354Z,385
2017-04-13T13:29:47.048Z,345
2017-04-13T13:30:47.350Z,310
2017-04-13T13:31:46.432Z,290
2017-04-13T13:32:47.340Z,280
2017-04-13T13:33:47.033Z,250
2017-04-13T13:34:47.327Z,225
2017-04-13T13:35:47.335Z,210
2017-04-13T13:36:47.014Z,200
2017-04-13T13:37:46.714Z,190
2017-04-13T13:38:47.006Z,190
2017-04-13T13:39:47.312Z,190
2017-04-13T13:40:46.999Z,190
2017-04-13T13:41:46.692Z,190
2017-04-13T13:42:47.291Z,190
2017-04-13T13:43:47.288Z,195
2017-04-13T13:44:46.679Z,195
2017-04-13T13:45:47.276Z,190
2017-04-13T13:46:47.021Z,190
2017-04-13T13:47:47.316Z,190
2017-04-13T13:48:46.962Z,190
2017-04-13T13:49:47.262Z,195
2017-04-13T13:50:47.254Z,185
2017-04-13T13:51:46.952Z,180
2017-04-13T13:52:47.245Z,185
2017-04-13T13:53:47.256Z,185
2017-04-13T13:54:47.508Z,185
2017-04-13T13:55:47.440Z,185
2017-04-13T13:56:46.621Z,190
2017-04-13T13:57:46.950Z,190
2017-04-13T13:58:47.209Z,190
2017-04-13T13:59:46.905Z,190
2017-04-13T14:00:46.601Z,205
2017-04-13T14:01:47.200Z,210
2017-04-13T14:02:47.189Z,225
2017-04-13T14:03:46.883Z,255
2017-04-13T14:04:46.879Z,285